sensor_id;sensor_type;location;lat;lon;timestamp;pressure;altitude;pressure_sealevel;temperature;humidity
78064;BME280;67429;51.596;-3.264;2024-02-21T00:00:06;99672.85;;;7.33;100.00
78064;BME280;67429;51.596;-3.264;2024-02-21T00:02:30;99671.53;;;8.11;100.00
78064;BME280;67429;51.596;-3.264;2024-02-21T00:04:55;99669.84;;;9.28;100.00
78064;BME280;67429;51.596;-3.264;2024-02-21T00:07:21;99666.45;;;8.70;100.00
78064;BME280;67429;51.596;-3.264;2024-02-21T00:09:52;99661.24;;;8.88;100.00
78064;BME280;67429;51.596;-3.264;2024-02-21T00:12:12;99657.70;;;8.83;100.00
78064;BME280;67429;51.596;-3.264;2024-02-21T00:14:37;99653.22;;;8.80;100.00
78064;BME280;67429;51.596;-3.264;2024-02-21T00:17:03;99651.32;;;7.83;100.00
78064;BME280;67429;51.596;-3.264;2024-02-21T00:19:29;99648.24;;;8.82;100.00
78064;BME280;67429;51.596;-3.264;2024-02-21T00:21:54;99644.73;;;8.87;100.00
78064;BME280;67429;51.596;-3.264;2024-02-21T00:24:20;99631.60;;;8.55;100.00
78064;BME280;67429;51.596;-3.264;2024-02-21T00:26:46;99620.95;;;8.45;100.00
78064;BME280;67429;51.596;-3.264;2024-02-21T00:29:12;99615.01;;;7.43;100.00
78064;BME280;67429;51.596;-3.264;2024-02-21T00:31:37;99608.56;;;7.07;100.00
78064;BME280;67429;51.596;-3.264;2024-02-21T00:34:02;99607.46;;;7.52;100.00
78064;BME280;67429;51.596;-3.264;2024-02-21T00:36:28;99604.48;;;7.55;100.00
78064;BME280;67429;51.596;-3.264;2024-02-21T00:38:53;99600.02;;;8.31;100.00
78064;BME280;67429;51.596;-3.264;2024-02-21T00:41:19;99589.96;;;7.88;100.00
78064;BME280;67429;51.596;-3.264;2024-02-21T00:43:45;99583.50;;;7.99;100.00
78064;BME280;67429;51.596;-3.264;2024-02-21T00:46:10;99578.48;;;7.60;100.00
78064;BME280;67429;51.596;-3.264;2024-02-21T00:48:41;99570.27;;;7.27;100.00
78064;BME280;67429;51.596;-3.264;2024-02-21T00:51:02;99567.05;;;7.47;100.00
78064;BME280;67429;51.596;-3.264;2024-02-21T00:53:27;99566.73;;;7.33;100.00
78064;BME280;67429;51.596;-3.264;2024-02-21T00:55:53;99559.17;;;8.18;100.00
78064;BME280;67429;51.596;-3.264;2024-02-21T00:58:18;99549.86;;;8.74;100.00
78064;BME280;67429;51.596;-3.264;2024-02-21T01:00:45;99537.89;;;8.08;100.00
78064;BME280;67429;51.596;-3.264;2024-02-21T01:03:14;99533.40;;;7.55;100.00
78064;BME280;67429;51.596;-3.264;2024-02-21T01:05:35;99524.56;;;7.90;100.00
78064;BME280;67429;51.596;-3.264;2024-02-21T01:08:02;99525.63;;;7.41;100.00
78064;BME280;67429;51.596;-3.264;2024-02-21T01:10:27;99522.88;;;8.02;100.00
78064;BME280;67429;51.596;-3.264;2024-02-21T01:12:52;99509.86;;;8.23;100.00
78064;BME280;67429;51.596;-3.264;2024-02-21T01:15:18;99501.90;;;7.94;100.00
78064;BME280;67429;51.596;-3.264;2024-02-21T01:17:43;99496.92;;;7.57;100.00
78064;BME280;67429;51.596;-3.264;2024-02-21T01:20:09;99496.09;;;7.20;100.00
78064;BME280;67429;51.596;-3.264;2024-02-21T01:22:37;99485.98;;;6.48;100.00
78064;BME280;67429;51.596;-3.264;2024-02-21T01:25:00;99479.59;;;7.62;100.00
78064;BME280;67429;51.596;-3.264;2024-02-21T01:27:27;99478.41;;;6.68;100.00
78064;BME280;67429;51.596;-3.264;2024-02-21T01:29:52;99472.11;;;6.67;100.00
78064;BME280;67429;51.596;-3.264;2024-02-21T01:32:17;99471.23;;;7.41;100.00
78064;BME280;67429;51.596;-3.264;2024-02-21T01:34:43;99461.94;;;7.32;100.00
78064;BME280;67429;51.596;-3.264;2024-02-21T01:37:08;99455.32;;;7.21;100.00
78064;BME280;67429;51.596;-3.264;2024-02-21T01:39:34;99458.42;;;7.21;100.00
78064;BME280;67429;51.596;-3.264;2024-02-21T01:41:59;99448.80;;;6.67;100.00
78064;BME280;67429;51.596;-3.264;2024-02-21T01:44:25;99440.34;;;7.33;100.00
78064;BME280;67429;51.596;-3.264;2024-02-21T01:46:53;99441.19;;;7.20;100.00
78064;BME280;67429;51.596;-3.264;2024-02-21T01:49:17;99446.55;;;7.00;100.00
78064;BME280;67429;51.596;-3.264;2024-02-21T01:51:42;99446.18;;;6.53;100.00
78064;BME280;67429;51.596;-3.264;2024-02-21T01:54:08;99440.78;;;7.22;100.00
78064;BME280;67429;51.596;-3.264;2024-02-21T01:56:33;99443.23;;;7.62;100.00
78064;BME280;67429;51.596;-3.264;2024-02-21T01:59:01;99445.14;;;7.61;100.00
78064;BME280;67429;51.596;-3.264;2024-02-21T02:01:25;99436.97;;;7.50;100.00
78064;BME280;67429;51.596;-3.264;2024-02-21T02:03:50;99430.66;;;7.13;100.00
78064;BME280;67429;51.596;-3.264;2024-02-21T02:06:15;99425.94;;;6.55;100.00
78064;BME280;67429;51.596;-3.264;2024-02-21T02:08:40;99423.62;;;6.95;100.00
78064;BME280;67429;51.596;-3.264;2024-02-21T02:11:06;99416.44;;;6.50;100.00
78064;BME280;67429;51.596;-3.264;2024-02-21T02:13:32;99416.11;;;6.91;100.00
78064;BME280;67429;51.596;-3.264;2024-02-21T02:16:03;99410.69;;;7.33;100.00
78064;BME280;67429;51.596;-3.264;2024-02-21T02:18:23;99400.75;;;6.54;100.00
78064;BME280;67429;51.596;-3.264;2024-02-21T02:20:48;99393.03;;;7.60;100.00
78064;BME280;67429;51.596;-3.264;2024-02-21T02:23:21;99385.23;;;6.97;100.00
78064;BME280;67429;51.596;-3.264;2024-02-21T02:25:41;99372.82;;;7.78;100.00
78064;BME280;67429;51.596;-3.264;2024-02-21T02:28:06;99363.65;;;7.52;100.00
78064;BME280;67429;51.596;-3.264;2024-02-21T02:30:33;99360.57;;;7.15;100.00
78064;BME280;67429;51.596;-3.264;2024-02-21T02:32:56;99363.74;;;7.52;100.00
78064;BME280;67429;51.596;-3.264;2024-02-21T02:35:22;99361.43;;;6.69;100.00
78064;BME280;67429;51.596;-3.264;2024-02-21T02:37:49;99357.39;;;6.09;100.00
78064;BME280;67429;51.596;-3.264;2024-02-21T02:40:14;99351.83;;;6.58;100.00
78064;BME280;67429;51.596;-3.264;2024-02-21T02:42:39;99347.46;;;6.74;100.00
78064;BME280;67429;51.596;-3.264;2024-02-21T02:45:05;99341.90;;;6.84;100.00
78064;BME280;67429;51.596;-3.264;2024-02-21T02:47:30;99331.35;;;6.88;100.00
78064;BME280;67429;51.596;-3.264;2024-02-21T02:49:56;99327.40;;;6.51;100.00
78064;BME280;67429;51.596;-3.264;2024-02-21T02:52:21;99320.07;;;7.48;100.00
78064;BME280;67429;51.596;-3.264;2024-02-21T02:54:47;99316.21;;;6.73;100.00
78064;BME280;67429;51.596;-3.264;2024-02-21T02:57:13;99306.33;;;7.39;100.00
78064;BME280;67429;51.596;-3.264;2024-02-21T02:59:38;99299.59;;;6.66;100.00
78064;BME280;67429;51.596;-3.264;2024-02-21T03:02:04;99295.10;;;6.92;100.00
78064;BME280;67429;51.596;-3.264;2024-02-21T03:04:30;99284.89;;;6.27;100.00
78064;BME280;67429;51.596;-3.264;2024-02-21T03:06:56;99275.61;;;6.39;100.00
78064;BME280;67429;51.596;-3.264;2024-02-21T03:09:21;99261.01;;;6.83;100.00
78064;BME280;67429;51.596;-3.264;2024-02-21T03:11:46;99251.09;;;7.02;100.00
78064;BME280;67429;51.596;-3.264;2024-02-21T03:14:12;99245.54;;;6.97;100.00
78064;BME280;67429;51.596;-3.264;2024-02-21T03:16:38;99240.25;;;5.98;100.00
78064;BME280;67429;51.596;-3.264;2024-02-21T03:19:03;99237.11;;;7.01;100.00
78064;BME280;67429;51.596;-3.264;2024-02-21T03:21:29;99228.35;;;6.37;100.00
78064;BME280;67429;51.596;-3.264;2024-02-21T03:23:55;99224.64;;;5.81;100.00
78064;BME280;67429;51.596;-3.264;2024-02-21T03:26:20;99218.53;;;6.10;100.00
78064;BME280;67429;51.596;-3.264;2024-02-21T03:28:46;99207.48;;;6.05;100.00
78064;BME280;67429;51.596;-3.264;2024-02-21T03:31:13;99200.23;;;6.06;100.00
78064;BME280;67429;51.596;-3.264;2024-02-21T03:33:37;99194.91;;;5.98;100.00
78064;BME280;67429;51.596;-3.264;2024-02-21T03:36:05;99190.60;;;6.44;100.00
78064;BME280;67429;51.596;-3.264;2024-02-21T03:38:29;99184.26;;;6.74;100.00
78064;BME280;67429;51.596;-3.264;2024-02-21T03:40:54;99174.30;;;6.51;100.00
78064;BME280;67429;51.596;-3.264;2024-02-21T03:43:20;99167.22;;;6.55;100.00
78064;BME280;67429;51.596;-3.264;2024-02-21T03:45:45;99166.82;;;5.94;100.00
78064;BME280;67429;51.596;-3.264;2024-02-21T03:48:11;99163.74;;;5.85;100.00
78064;BME280;67429;51.596;-3.264;2024-02-21T03:50:36;99166.07;;;6.80;100.00
78064;BME280;67429;51.596;-3.264;2024-02-21T03:53:02;99151.42;;;7.05;100.00
78064;BME280;67429;51.596;-3.264;2024-02-21T03:55:29;99141.18;;;6.01;100.00
78064;BME280;67429;51.596;-3.264;2024-02-21T03:57:54;99132.36;;;6.44;100.00
78064;BME280;67429;51.596;-3.264;2024-02-21T04:00:21;99129.88;;;6.04;100.00
78064;BME280;67429;51.596;-3.264;2024-02-21T04:02:45;99122.94;;;6.54;100.00
78064;BME280;67429;51.596;-3.264;2024-02-21T04:05:10;99124.21;;;5.96;100.00
78064;BME280;67429;51.596;-3.264;2024-02-21T04:07:36;99116.69;;;5.21;100.00
78064;BME280;67429;51.596;-3.264;2024-02-21T04:10:02;99101.32;;;6.27;100.00
78064;BME280;67429;51.596;-3.264;2024-02-21T04:12:27;99089.17;;;6.35;100.00
78064;BME280;67429;51.596;-3.264;2024-02-21T04:14:53;99076.67;;;6.66;100.00
78064;BME280;67429;51.596;-3.264;2024-02-21T04:17:18;99075.60;;;5.91;100.00
78064;BME280;67429;51.596;-3.264;2024-02-21T04:19:44;99064.61;;;5.72;100.00
78064;BME280;67429;51.596;-3.264;2024-02-21T04:22:10;99045.93;;;5.62;100.00
78064;BME280;67429;51.596;-3.264;2024-02-21T04:24:35;99042.69;;;5.31;100.00
78064;BME280;67429;51.596;-3.264;2024-02-21T04:27:01;99041.54;;;5.73;100.00
78064;BME280;67429;51.596;-3.264;2024-02-21T04:29:27;99038.06;;;5.92;100.00
78064;BME280;67429;51.596;-3.264;2024-02-21T04:31:54;99022.14;;;5.27;100.00
78064;BME280;67429;51.596;-3.264;2024-02-21T04:34:19;99013.30;;;5.60;100.00
78064;BME280;67429;51.596;-3.264;2024-02-21T04:36:44;99004.33;;;5.39;100.00
78064;BME280;67429;51.596;-3.264;2024-02-21T04:39:10;98992.90;;;5.64;100.00
78064;BME280;67429;51.596;-3.264;2024-02-21T04:41:35;98995.60;;;5.37;100.00
78064;BME280;67429;51.596;-3.264;2024-02-21T04:44:00;98986.32;;;4.82;100.00
78064;BME280;67429;51.596;-3.264;2024-02-21T04:46:26;98986.18;;;5.75;100.00
78064;BME280;67429;51.596;-3.264;2024-02-21T04:48:52;98983.24;;;5.52;100.00
78064;BME280;67429;51.596;-3.264;2024-02-21T04:51:17;98983.91;;;6.46;100.00
78064;BME280;67429;51.596;-3.264;2024-02-21T04:53:43;98984.74;;;5.73;100.00
78064;BME280;67429;51.596;-3.264;2024-02-21T04:56:09;98969.92;;;5.79;100.00
78064;BME280;67429;51.596;-3.264;2024-02-21T04:58:38;98957.37;;;4.96;100.00
78064;BME280;67429;51.596;-3.264;2024-02-21T05:01:00;98948.02;;;5.04;100.00
78064;BME280;67429;51.596;-3.264;2024-02-21T05:03:26;98939.02;;;5.73;100.00
78064;BME280;67429;51.596;-3.264;2024-02-21T05:05:51;98935.31;;;5.79;100.00
78064;BME280;67429;51.596;-3.264;2024-02-21T05:08:17;98926.87;;;5.70;100.00
78064;BME280;67429;51.596;-3.264;2024-02-21T05:10:43;98920.17;;;6.19;100.00
78064;BME280;67429;51.596;-3.264;2024-02-21T05:13:08;98918.97;;;5.68;100.00
78064;BME280;67429;51.596;-3.264;2024-02-21T05:15:34;98926.77;;;5.94;100.00
78064;BME280;67429;51.596;-3.264;2024-02-21T05:18:01;98917.95;;;5.37;100.00
78064;BME280;67429;51.596;-3.264;2024-02-21T05:20:25;98902.49;;;6.24;100.00
78064;BME280;67429;51.596;-3.264;2024-02-21T05:22:51;98901.72;;;5.62;100.00
78064;BME280;67429;51.596;-3.264;2024-02-21T05:25:19;98890.17;;;5.22;100.00
78064;BME280;67429;51.596;-3.264;2024-02-21T05:27:42;98882.77;;;5.47;100.00
78064;BME280;67429;51.596;-3.264;2024-02-21T05:30:13;98876.86;;;5.64;100.00
78064;BME280;67429;51.596;-3.264;2024-02-21T05:32:34;98861.16;;;5.25;100.00
78064;BME280;67429;51.596;-3.264;2024-02-21T05:34:59;98855.48;;;5.27;100.00
78064;BME280;67429;51.596;-3.264;2024-02-21T05:37:25;98848.73;;;5.24;100.00
78064;BME280;67429;51.596;-3.264;2024-02-21T05:39:51;98844.05;;;5.45;100.00
78064;BME280;67429;51.596;-3.264;2024-02-21T05:42:16;98832.81;;;6.04;100.00
78064;BME280;67429;51.596;-3.264;2024-02-21T05:44:42;98819.05;;;6.36;100.00
78064;BME280;67429;51.596;-3.264;2024-02-21T05:47:08;98802.26;;;5.65;100.00
78064;BME280;67429;51.596;-3.264;2024-02-21T05:49:33;98793.44;;;5.79;100.00
78064;BME280;67429;51.596;-3.264;2024-02-21T05:51:59;98791.43;;;6.13;100.00
78064;BME280;67429;51.596;-3.264;2024-02-21T05:54:25;98783.38;;;6.10;100.00
78064;BME280;67429;51.596;-3.264;2024-02-21T05:56:52;98785.26;;;5.77;100.00
78064;BME280;67429;51.596;-3.264;2024-02-21T05:59:16;98781.87;;;5.87;100.00
78064;BME280;67429;51.596;-3.264;2024-02-21T06:01:56;98769.25;;;5.88;100.00
78064;BME280;67429;51.596;-3.264;2024-02-21T06:04:07;98759.54;;;5.82;100.00
78064;BME280;67429;51.596;-3.264;2024-02-21T06:06:33;98755.49;;;6.10;100.00
78064;BME280;67429;51.596;-3.264;2024-02-21T06:08:59;98746.50;;;5.65;100.00
78064;BME280;67429;51.596;-3.264;2024-02-21T06:11:25;98755.72;;;6.03;100.00
78064;BME280;67429;51.596;-3.264;2024-02-21T06:13:50;98741.51;;;5.21;100.00
78064;BME280;67429;51.596;-3.264;2024-02-21T06:16:16;98733.29;;;5.24;100.00
78064;BME280;67429;51.596;-3.264;2024-02-21T06:18:41;98727.77;;;5.97;100.00
78064;BME280;67429;51.596;-3.264;2024-02-21T06:21:08;98715.82;;;5.96;100.00
78064;BME280;67429;51.596;-3.264;2024-02-21T06:23:32;98718.25;;;6.64;100.00
78064;BME280;67429;51.596;-3.264;2024-02-21T06:25:58;98700.77;;;5.43;100.00
78064;BME280;67429;51.596;-3.264;2024-02-21T06:28:26;98700.50;;;4.92;100.00
78064;BME280;67429;51.596;-3.264;2024-02-21T06:30:50;98688.45;;;5.10;100.00
78064;BME280;67429;51.596;-3.264;2024-02-21T06:33:21;98688.76;;;4.83;100.00
78064;BME280;67429;51.596;-3.264;2024-02-21T06:35:42;98685.27;;;5.76;100.00
78064;BME280;67429;51.596;-3.264;2024-02-21T06:38:06;98679.27;;;5.19;100.00
78064;BME280;67429;51.596;-3.264;2024-02-21T06:40:33;98667.55;;;4.39;100.00
78064;BME280;67429;51.596;-3.264;2024-02-21T06:42:58;98664.81;;;5.19;100.00
78064;BME280;67429;51.596;-3.264;2024-02-21T06:45:23;98650.65;;;5.23;100.00
78064;BME280;67429;51.596;-3.264;2024-02-21T06:47:49;98644.94;;;5.89;100.00
78064;BME280;67429;51.596;-3.264;2024-02-21T06:50:15;98629.75;;;4.80;100.00
78064;BME280;67429;51.596;-3.264;2024-02-21T06:52:40;98625.27;;;5.10;100.00
78064;BME280;67429;51.596;-3.264;2024-02-21T06:55:07;98623.83;;;6.25;100.00
78064;BME280;67429;51.596;-3.264;2024-02-21T06:57:32;98618.29;;;5.84;100.00
78064;BME280;67429;51.596;-3.264;2024-02-21T06:59:59;98614.17;;;6.12;100.00
78064;BME280;67429;51.596;-3.264;2024-02-21T07:02:24;98604.42;;;6.03;100.00
78064;BME280;67429;51.596;-3.264;2024-02-21T07:04:49;98596.12;;;4.72;100.00
78064;BME280;67429;51.596;-3.264;2024-02-21T07:07:16;98586.54;;;4.99;100.00
78064;BME280;67429;51.596;-3.264;2024-02-21T07:09:40;98582.84;;;4.80;100.00
78064;BME280;67429;51.596;-3.264;2024-02-21T07:12:07;98570.41;;;4.53;100.00
78064;BME280;67429;51.596;-3.264;2024-02-21T07:14:32;98570.40;;;5.15;100.00
78064;BME280;67429;51.596;-3.264;2024-02-21T07:16:57;98554.08;;;5.02;100.00
78064;BME280;67429;51.596;-3.264;2024-02-21T07:19:23;98546.78;;;4.69;100.00
78064;BME280;67429;51.596;-3.264;2024-02-21T07:21:48;98573.34;;;4.53;100.00
78064;BME280;67429;51.596;-3.264;2024-02-21T07:24:14;98577.40;;;4.50;100.00
78064;BME280;67429;51.596;-3.264;2024-02-21T07:26:45;98568.52;;;5.56;100.00
78064;BME280;67429;51.596;-3.264;2024-02-21T07:29:07;98551.94;;;5.45;100.00
78064;BME280;67429;51.596;-3.264;2024-02-21T07:31:31;98532.52;;;5.12;100.00
78064;BME280;67429;51.596;-3.264;2024-02-21T07:33:56;98536.47;;;5.32;100.00
78064;BME280;67429;51.596;-3.264;2024-02-21T07:36:28;98526.46;;;4.81;100.00
78064;BME280;67429;51.596;-3.264;2024-02-21T07:38:48;98516.24;;;4.63;100.00
78064;BME280;67429;51.596;-3.264;2024-02-21T07:41:15;98514.50;;;5.39;100.00
78064;BME280;67429;51.596;-3.264;2024-02-21T07:43:39;98517.91;;;5.30;100.00
78064;BME280;67429;51.596;-3.264;2024-02-21T07:46:11;98500.13;;;5.21;100.00
78064;BME280;67429;51.596;-3.264;2024-02-21T07:48:32;98482.87;;;4.63;100.00
78064;BME280;67429;51.596;-3.264;2024-02-21T07:50:57;98479.97;;;4.71;100.00
78064;BME280;67429;51.596;-3.264;2024-02-21T07:53:22;98480.68;;;5.88;100.00
78064;BME280;67429;51.596;-3.264;2024-02-21T07:55:47;98470.31;;;6.49;100.00
78064;BME280;67429;51.596;-3.264;2024-02-21T07:58:13;98469.75;;;5.45;100.00
78064;BME280;67429;51.596;-3.264;2024-02-21T08:00:39;98466.92;;;5.47;100.00
78064;BME280;67429;51.596;-3.264;2024-02-21T08:03:04;98454.00;;;4.89;100.00
78064;BME280;67429;51.596;-3.264;2024-02-21T08:05:30;98450.52;;;5.43;100.00
78064;BME280;67429;51.596;-3.264;2024-02-21T08:07:57;98451.90;;;4.62;100.00
78064;BME280;67429;51.596;-3.264;2024-02-21T08:10:21;98437.57;;;4.57;100.00
78064;BME280;67429;51.596;-3.264;2024-02-21T08:12:47;98434.71;;;4.52;100.00
78064;BME280;67429;51.596;-3.264;2024-02-21T08:15:12;98427.78;;;5.73;100.00
78064;BME280;67429;51.596;-3.264;2024-02-21T08:17:38;98413.68;;;6.27;100.00
78064;BME280;67429;51.596;-3.264;2024-02-21T08:20:10;98414.24;;;5.72;100.00
78064;BME280;67429;51.596;-3.264;2024-02-21T08:22:30;98400.04;;;5.08;100.00
78064;BME280;67429;51.596;-3.264;2024-02-21T08:24:56;98397.02;;;4.98;100.00
78064;BME280;67429;51.596;-3.264;2024-02-21T08:27:21;98390.99;;;6.36;100.00
78064;BME280;67429;51.596;-3.264;2024-02-21T08:29:46;98384.31;;;5.29;100.00
78064;BME280;67429;51.596;-3.264;2024-02-21T08:32:17;98376.52;;;6.27;100.00
78064;BME280;67429;51.596;-3.264;2024-02-21T08:34:38;98376.46;;;5.40;100.00
78064;BME280;67429;51.596;-3.264;2024-02-21T08:37:04;98364.31;;;5.55;100.00
78064;BME280;67429;51.596;-3.264;2024-02-21T08:39:29;98359.73;;;5.17;100.00
78064;BME280;67429;51.596;-3.264;2024-02-21T08:41:55;98352.70;;;5.34;100.00
78064;BME280;67429;51.596;-3.264;2024-02-21T08:44:22;98336.62;;;5.33;100.00
78064;BME280;67429;51.596;-3.264;2024-02-21T08:46:46;98333.45;;;5.30;100.00
78064;BME280;67429;51.596;-3.264;2024-02-21T08:49:11;98327.20;;;5.37;100.00
78064;BME280;67429;51.596;-3.264;2024-02-21T08:51:37;98325.51;;;5.46;100.00
78064;BME280;67429;51.596;-3.264;2024-02-21T08:54:03;98318.63;;;5.42;100.00
78064;BME280;67429;51.596;-3.264;2024-02-21T08:56:30;98311.72;;;5.08;100.00
78064;BME280;67429;51.596;-3.264;2024-02-21T08:58:59;98307.07;;;5.40;100.00
78064;BME280;67429;51.596;-3.264;2024-02-21T09:01:19;98302.08;;;5.19;100.00
78064;BME280;67429;51.596;-3.264;2024-02-21T09:03:45;98301.01;;;5.03;100.00
78064;BME280;67429;51.596;-3.264;2024-02-21T09:06:16;98304.70;;;4.75;100.00
78064;BME280;67429;51.596;-3.264;2024-02-21T09:08:37;98285.89;;;5.48;100.00
78064;BME280;67429;51.596;-3.264;2024-02-21T09:11:02;98284.63;;;5.51;100.00
78064;BME280;67429;51.596;-3.264;2024-02-21T09:13:28;98276.16;;;5.59;100.00
78064;BME280;67429;51.596;-3.264;2024-02-21T09:15:53;98271.15;;;5.22;100.00
78064;BME280;67429;51.596;-3.264;2024-02-21T09:18:21;98280.23;;;5.03;100.00
78064;BME280;67429;51.596;-3.264;2024-02-21T09:20:50;98278.82;;;5.34;100.00
78064;BME280;67429;51.596;-3.264;2024-02-21T09:23:18;98289.78;;;6.06;100.00
78064;BME280;67429;51.596;-3.264;2024-02-21T09:25:36;98269.97;;;5.07;100.00
78064;BME280;67429;51.596;-3.264;2024-02-21T09:28:03;98278.39;;;5.21;100.00
78064;BME280;67429;51.596;-3.264;2024-02-21T09:30:27;98265.22;;;5.39;100.00
78064;BME280;67429;51.596;-3.264;2024-02-21T09:32:53;98263.95;;;5.76;100.00
78064;BME280;67429;51.596;-3.264;2024-02-21T09:35:20;98266.20;;;5.88;100.00
78064;BME280;67429;51.596;-3.264;2024-02-21T09:37:44;98270.94;;;5.02;100.00
78064;BME280;67429;51.596;-3.264;2024-02-21T09:40:10;98246.64;;;5.34;100.00
78064;BME280;67429;51.596;-3.264;2024-02-21T09:42:38;98242.23;;;5.33;100.00
78064;BME280;67429;51.596;-3.264;2024-02-21T09:45:03;98245.88;;;4.46;100.00
78064;BME280;67429;51.596;-3.264;2024-02-21T09:47:33;98227.36;;;5.11;100.00
78064;BME280;67429;51.596;-3.264;2024-02-21T09:49:52;98222.05;;;4.84;100.00
78064;BME280;67429;51.596;-3.264;2024-02-21T09:52:18;98207.61;;;5.33;100.00
78064;BME280;67429;51.596;-3.264;2024-02-21T09:54:43;98202.11;;;6.13;100.00
78064;BME280;67429;51.596;-3.264;2024-02-21T09:57:09;98188.39;;;5.97;100.00
78064;BME280;67429;51.596;-3.264;2024-02-21T09:59:37;98181.94;;;6.13;100.00
78064;BME280;67429;51.596;-3.264;2024-02-21T10:02:00;98175.80;;;5.59;100.00
78064;BME280;67429;51.596;-3.264;2024-02-21T10:04:25;98169.76;;;5.86;100.00
78064;BME280;67429;51.596;-3.264;2024-02-21T10:06:51;98166.16;;;5.68;100.00
78064;BME280;67429;51.596;-3.264;2024-02-21T10:09:22;98156.43;;;6.86;100.00
78064;BME280;67429;51.596;-3.264;2024-02-21T10:11:42;98157.16;;;5.37;100.00
78064;BME280;67429;51.596;-3.264;2024-02-21T10:14:08;98153.28;;;5.93;100.00
78064;BME280;67429;51.596;-3.264;2024-02-21T10:16:34;98149.12;;;5.71;100.00
78064;BME280;67429;51.596;-3.264;2024-02-21T10:18:59;98151.69;;;5.37;100.00
78064;BME280;67429;51.596;-3.264;2024-02-21T10:21:25;98130.59;;;5.34;100.00
78064;BME280;67429;51.596;-3.264;2024-02-21T10:23:51;98132.82;;;5.47;100.00
78064;BME280;67429;51.596;-3.264;2024-02-21T10:26:18;98131.89;;;5.95;100.00
78064;BME280;67429;51.596;-3.264;2024-02-21T10:28:42;98125.38;;;5.36;100.00
78064;BME280;67429;51.596;-3.264;2024-02-21T10:31:09;98114.73;;;5.37;100.00
78064;BME280;67429;51.596;-3.264;2024-02-21T10:33:33;98104.95;;;5.53;100.00
78064;BME280;67429;51.596;-3.264;2024-02-21T10:36:08;98100.41;;;5.67;100.00
78064;BME280;67429;51.596;-3.264;2024-02-21T10:38:24;98093.43;;;6.63;100.00
78064;BME280;67429;51.596;-3.264;2024-02-21T10:40:50;98081.71;;;5.49;100.00
78064;BME280;67429;51.596;-3.264;2024-02-21T10:43:16;98075.73;;;5.45;100.00
78064;BME280;67429;51.596;-3.264;2024-02-21T10:45:42;98077.71;;;6.07;100.00
78064;BME280;67429;51.596;-3.264;2024-02-21T10:48:12;98076.18;;;6.65;100.00
78064;BME280;67429;51.596;-3.264;2024-02-21T10:50:32;98067.60;;;7.05;100.00
78064;BME280;67429;51.596;-3.264;2024-02-21T10:53:06;98063.20;;;7.53;100.00
78064;BME280;67429;51.596;-3.264;2024-02-21T10:55:38;98055.51;;;7.68;100.00
78064;BME280;67429;51.596;-3.264;2024-02-21T10:57:55;98051.15;;;7.17;100.00
78064;BME280;67429;51.596;-3.264;2024-02-21T11:00:19;98040.21;;;7.43;100.00
78064;BME280;67429;51.596;-3.264;2024-02-21T11:02:45;98036.76;;;6.83;100.00
78064;BME280;67429;51.596;-3.264;2024-02-21T11:05:06;98029.48;;;7.38;100.00
78064;BME280;67429;51.596;-3.264;2024-02-21T11:07:36;98019.11;;;7.23;100.00
78064;BME280;67429;51.596;-3.264;2024-02-21T11:09:57;98021.02;;;7.30;100.00
78064;BME280;67429;51.596;-3.264;2024-02-21T11:12:23;98012.54;;;6.87;100.00
78064;BME280;67429;51.596;-3.264;2024-02-21T11:14:48;98010.68;;;7.21;100.00
78064;BME280;67429;51.596;-3.264;2024-02-21T11:17:15;98006.89;;;6.37;100.00
78064;BME280;67429;51.596;-3.264;2024-02-21T11:19:44;98006.78;;;7.27;100.00
78064;BME280;67429;51.596;-3.264;2024-02-21T11:22:14;98000.03;;;7.56;100.00
78064;BME280;67429;51.596;-3.264;2024-02-21T11:24:32;97996.07;;;7.06;100.00
78064;BME280;67429;51.596;-3.264;2024-02-21T11:26:56;97989.45;;;7.33;100.00
78064;BME280;67429;51.596;-3.264;2024-02-21T11:29:24;97991.75;;;7.47;100.00
78064;BME280;67429;51.596;-3.264;2024-02-21T11:31:47;97990.93;;;7.46;100.00
78064;BME280;67429;51.596;-3.264;2024-02-21T11:34:23;97985.09;;;6.92;100.00
78064;BME280;67429;51.596;-3.264;2024-02-21T11:36:46;97994.20;;;6.60;100.00
78064;BME280;67429;51.596;-3.264;2024-02-21T11:39:04;97990.77;;;7.44;100.00
78064;BME280;67429;51.596;-3.264;2024-02-21T11:41:32;97990.44;;;7.30;100.00
78064;BME280;67429;51.596;-3.264;2024-02-21T11:43:55;97981.25;;;6.77;100.00
78064;BME280;67429;51.596;-3.264;2024-02-21T11:46:22;97980.64;;;7.31;100.00
78064;BME280;67429;51.596;-3.264;2024-02-21T11:48:46;97969.71;;;7.80;100.00
78064;BME280;67429;51.596;-3.264;2024-02-21T11:51:21;97970.49;;;7.64;100.00
78064;BME280;67429;51.596;-3.264;2024-02-21T11:53:42;97952.34;;;7.29;100.00
78064;BME280;67429;51.596;-3.264;2024-02-21T11:56:03;97947.95;;;6.91;100.00
78064;BME280;67429;51.596;-3.264;2024-02-21T11:58:30;97941.08;;;7.99;100.00
78064;BME280;67429;51.596;-3.264;2024-02-21T12:00:54;97934.64;;;7.03;100.00
78064;BME280;67429;51.596;-3.264;2024-02-21T12:03:20;97929.59;;;7.14;100.00
78064;BME280;67429;51.596;-3.264;2024-02-21T12:05:45;97919.41;;;7.16;100.00
78064;BME280;67429;51.596;-3.264;2024-02-21T12:08:11;97910.28;;;7.66;100.00
78064;BME280;67429;51.596;-3.264;2024-02-21T12:10:36;97906.88;;;6.90;100.00
78064;BME280;67429;51.596;-3.264;2024-02-21T12:13:07;97903.32;;;7.52;100.00
78064;BME280;67429;51.596;-3.264;2024-02-21T12:15:33;97911.01;;;8.47;100.00
78064;BME280;67429;51.596;-3.264;2024-02-21T12:17:55;97891.24;;;7.74;100.00
78064;BME280;67429;51.596;-3.264;2024-02-21T12:20:20;97898.93;;;7.85;100.00
78064;BME280;67429;51.596;-3.264;2024-02-21T12:22:45;97892.08;;;8.60;100.00
78064;BME280;67429;51.596;-3.264;2024-02-21T12:25:16;97874.65;;;8.15;100.00
78064;BME280;67429;51.596;-3.264;2024-02-21T12:27:37;97872.54;;;7.78;100.00
78064;BME280;67429;51.596;-3.264;2024-02-21T12:30:01;97873.84;;;7.79;100.00
78064;BME280;67429;51.596;-3.264;2024-02-21T12:32:27;97884.53;;;8.44;100.00
78064;BME280;67429;51.596;-3.264;2024-02-21T12:34:53;97883.55;;;8.20;100.00
78064;BME280;67429;51.596;-3.264;2024-02-21T12:37:18;97915.29;;;7.72;100.00
78064;BME280;67429;51.596;-3.264;2024-02-21T12:39:49;97912.06;;;7.52;100.00